Currently 50°F in Perris, California, USA
50°F
50°F / 50°F
calm
0.00"
Saturday, January 19, 2019 12:06 AM PST

Perris, California Weather Summary
Last 36 Hours

Temperature Winds Hourly Humidity Dewpoint
Time Report Norm Report Norm Max Gusts Precip. Rpt. Norm Rpt. Norm Pressure
1,3Sat 12:06 AM  49.6°F  51°F  calm  1 mph  none  0.00"  98%  60%  49°F  37°F  30.28"
2Sat 12:03 AM  49.7°F  51°F  calm  2 mph  none  ----  98%  60%  49°F  37°F  30.28"
Sat 12:00 AM  49.6°F  51°F  calm  2 mph  3 mph  0.00"  98%  60%  49°F  37°F  30.28"
Fri 11:00 PM  50.6°F  52°F  2 mph SE  1 mph  3 mph  0.00"  96%  58%  49°F  37°F  30.28"
Fri 10:00 PM  53.0°F  54°F  calm  2 mph  4 mph  0.00"  96%  56%  52°F  38°F  30.28"
Fri 09:00 PM  52.9°F  55°F  2 mph N  2 mph  4 mph  0.00"  95%  53%  51°F  38°F  30.27"
Fri 08:00 PM  53.9°F  56°F  2 mph N  3 mph  7 mph  0.00"  93%  51%  52°F  38°F  30.26"
Fri 07:00 PM  54.8°F  58°F  2 mph NE  3 mph  4 mph  0.00"  92%  48%  52°F  38°F  30.25"
Fri 06:00 PM  56.4°F  59°F  calm  3 mph  4 mph  0.00"  86%  46%  52°F  38°F  30.23"
Fri 05:00 PM  58.2°F  62°F  2 mph E  4 mph  5 mph  0.00"  83%  42%  53°F  38°F  30.22"
Fri 04:00 PM  59.4°F  64°F  calm  4 mph  7 mph  0.00"  79%  38%  53°F  37°F  30.20"
Fri 03:00 PM  62.6°F  66°F  calm  4 mph  8 mph  0.00"  76%  37%  55°F  37°F  30.22"
Fri 02:00 PM  58.4°F  66°F  2 mph NE  4 mph  8 mph  0.00"  82%  36%  53°F  37°F  30.22"
Fri 01:00 PM  58.3°F  66°F  calm  4 mph  7 mph  0.00"  84%  37%  53°F  37°F  30.23"
Fri 12:00 PM  57.7°F  64°F  calm  3 mph  7 mph  0.00"  90%  40%  55°F  38°F  30.25"
Fri 11:00 AM  55.5°F  61°F  calm  3 mph  5 mph  0.00"  98%  46%  55°F  39°F  30.28"
Fri 10:00 AM  52.8°F  57°F  calm  3 mph  none  0.00"  100%  55%  53°F  40°F  30.27"
Fri 09:00 AM  51.1°F  51°F  calm  2 mph  none  0.00"  100%  63%  51°F  39°F  30.27"
Fri 08:00 AM  50.3°F  47°F  calm  2 mph  none  0.00"  100%  67%  50°F  36°F  30.25"
Fri 07:00 AM  50.0°F  46°F  calm  1 mph  none  0.00"  100%  68%  50°F  35°F  30.23"
Fri 06:00 AM  50.0°F  46°F  calm  1 mph  none  0.00"  100%  67%  50°F  36°F  30.22"
Fri 05:00 AM  50.5°F  47°F  calm  1 mph  none  0.00"  100%  66%  51°F  36°F  30.22"
Fri 04:00 AM  49.9°F  47°F  calm  1 mph  none  0.00"  100%  65%  50°F  36°F  30.22"
Fri 03:00 AM  50.5°F  48°F  calm  1 mph  none  0.00"  100%  64%  51°F  36°F  30.22"
Fri 02:00 AM  50.9°F  49°F  calm  1 mph  none  0.00"  100%  63%  51°F  36°F  30.21"
Fri 01:00 AM  52.2°F  50°F  calm  1 mph  none  0.00"  100%  61%  52°F  36°F  30.20"
Fri 12:00 AM  53.9°F  51°F  calm  2 mph  none  0.00"  100%  58%  54°F  36°F  30.20"
Thu 11:00 PM  53.9°F  52°F  calm  2 mph  none  0.00"  100%  56%  54°F  37°F  30.19"
Thu 10:00 PM  54.1°F  54°F  calm  2 mph  none  0.00"  100%  54%  54°F  37°F  30.19"
Thu 09:00 PM  54.7°F  55°F  calm  2 mph  none  0.00"  99%  52%  54°F  37°F  30.19"
Thu 08:00 PM  55.0°F  57°F  calm  3 mph  none  0.00"  99%  49%  55°F  37°F  30.16"
Thu 07:00 PM  55.4°F  58°F  calm  3 mph  none  0.00"  99%  47%  55°F  37°F  30.13"
Thu 06:00 PM  56.6°F  60°F  calm  3 mph  none  0.00"  99%  44%  56°F  37°F  30.18"
Thu 05:00 PM  57.3°F  62°F  calm  4 mph  none  0.00"  100%  40%  57°F  37°F  30.16"
Thu 04:00 PM  58.0°F  65°F  calm  4 mph  none  0.01"  100%  37%  58°F  37°F  30.16"
Thu 03:00 PM  57.3°F  66°F  calm  4 mph  none  0.00"  100%  35%  57°F  36°F  30.13"
Thu 02:00 PM  57.1°F  66°F  calm  4 mph  none  0.01"  100%  34%  57°F  36°F  30.12"
Thu 01:00 PM  56.4°F  66°F  calm  4 mph  none  0.09"  100%  36%  56°F  37°F  30.12"
Thu 12:00 PM  55.7°F  64°F  calm  3 mph  none  0.03"  100%  39%  56°F  38°F  30.16"

  1. Current weather data. No green row appears if the current weather data is also the high or low for the current day.
  2. High temperature for the current day.
  3. Low temperature for the current day.

The Perris, California weather pages are a service of WeatherCurrents. Perris is located in Southern California's Inland Empire, south of Riverside and north of Sun City, along the Interstate 215 freeway.
Copyright ©Sat Jan 19 00:06:45 PST 2019  WeatherCurrents. All rights reserved. - Submit questions and comments - Privacy Policy

This page automatically refreshes every 10 minutes.